createdAt,value
2023-01-26T00:02:13.747Z,8.95
2023-01-26T00:04:42.061Z,8.30
2023-01-26T00:07:10.306Z,8.20
2023-01-26T00:09:38.492Z,8.98
2023-01-26T00:12:07.133Z,8.38
2023-01-26T00:14:49.921Z,9.32
2023-01-26T00:17:27.020Z,7.45
2023-01-26T00:19:56.537Z,7.53
2023-01-26T00:22:25.680Z,7.22
2023-01-26T00:24:54.020Z,8.68
2023-01-26T00:27:22.247Z,8.95
2023-01-26T00:29:50.476Z,7.47
2023-01-26T00:32:20.398Z,10.10
2023-01-26T00:34:48.608Z,9.70
2023-01-26T00:37:33.463Z,10.38
2023-01-26T00:40:09.706Z,9.68
2023-01-26T00:42:39.885Z,9.57
2023-01-26T00:45:09.308Z,8.48
2023-01-26T00:47:38.913Z,8.80
2023-01-26T00:50:07.746Z,8.95
2023-01-26T00:52:36.036Z,9.30
2023-01-26T00:55:04.664Z,9.35
2023-01-26T00:57:32.895Z,9.02
2023-01-26T01:00:01.161Z,9.48
2023-01-26T01:02:29.346Z,8.48
2023-01-26T01:04:58.945Z,9.30
2023-01-26T01:07:27.211Z,8.73
2023-01-26T01:09:55.480Z,9.60
2023-01-26T01:12:23.776Z,9.07
2023-01-26T01:14:51.991Z,8.68
2023-01-26T01:17:20.287Z,7.80
2023-01-26T01:19:48.466Z,11.18
2023-01-26T01:22:18.338Z,8.55
2023-01-26T01:24:46.544Z,7.13
2023-01-26T01:27:14.852Z,7.47
2023-01-26T01:29:43.046Z,6.97
2023-01-26T01:32:11.280Z,7.40
2023-01-26T01:34:39.497Z,6.20
2023-01-26T01:37:07.750Z,7.20
2023-01-26T01:39:37.307Z,6.75
2023-01-26T01:42:06.068Z,7.53
2023-01-26T01:44:37.752Z,5.95
2023-01-26T01:47:12.698Z,7.30
2023-01-26T01:49:47.612Z,6.75
2023-01-26T01:52:21.367Z,6.95
2023-01-26T01:54:55.358Z,6.75
2023-01-26T01:57:28.561Z,7.43
2023-01-26T02:00:01.033Z,7.32
2023-01-26T02:02:29.950Z,7.15
2023-01-26T02:05:03.381Z,7.38
2023-01-26T02:07:33.581Z,7.40
2023-01-26T02:10:22.022Z,7.45
2023-01-26T02:12:55.564Z,6.85
2023-01-26T02:15:23.845Z,7.15
2023-01-26T02:17:53.434Z,5.85
2023-01-26T02:20:33.441Z,6.15
2023-01-26T02:23:07.557Z,6.95
2023-01-26T02:25:45.842Z,5.53
2023-01-26T02:28:15.443Z,6.07
2023-01-26T02:30:43.841Z,5.72
2023-01-26T02:33:16.279Z,6.35
2023-01-26T02:35:44.484Z,7.00
2023-01-26T02:38:12.709Z,5.65
2023-01-26T02:40:47.556Z,6.00
2023-01-26T02:43:16.309Z,6.30
2023-01-26T02:45:45.318Z,6.15
2023-01-26T02:48:13.524Z,6.70
2023-01-26T02:50:40.715Z,5.63
2023-01-26T02:53:08.873Z,5.90
2023-01-26T02:55:36.024Z,5.22
2023-01-26T02:58:06.148Z,5.68
2023-01-26T03:00:38.227Z,6.20
2023-01-26T03:03:13.497Z,6.10
2023-01-26T03:05:41.972Z,5.88
2023-01-26T03:08:10.244Z,6.43
2023-01-26T03:10:38.664Z,6.32
2023-01-26T03:13:06.966Z,6.00
2023-01-26T03:15:43.001Z,6.88
2023-01-26T03:18:30.353Z,6.90
2023-01-26T03:21:18.013Z,7.43
2023-01-26T03:24:03.783Z,6.70
2023-01-26T03:26:49.212Z,8.25
2023-01-26T03:29:17.657Z,8.27
2023-01-26T03:31:47.304Z,7.25
2023-01-26T03:34:15.477Z,9.07
2023-01-26T03:36:43.695Z,9.35
2023-01-26T03:39:31.975Z,8.00
2023-01-26T03:42:17.703Z,9.40
2023-01-26T03:45:03.823Z,9.68
2023-01-26T03:47:52.348Z,9.95
2023-01-26T03:50:38.649Z,10.15
2023-01-26T03:53:32.598Z,10.05
2023-01-26T03:56:18.413Z,9.95
2023-01-26T03:58:47.020Z,9.52
2023-01-26T04:01:19.954Z,10.15
2023-01-26T04:04:08.402Z,8.93
2023-01-26T04:06:55.191Z,9.88
2023-01-26T04:09:23.984Z,10.80
2023-01-26T04:11:52.217Z,8.80
2023-01-26T04:14:50.076Z,8.95
2023-01-26T04:17:36.802Z,8.73
2023-01-26T04:20:25.221Z,8.88
2023-01-26T04:22:53.449Z,9.60
2023-01-26T04:25:23.182Z,10.40
2023-01-26T04:27:51.501Z,9.32
2023-01-26T04:30:20.321Z,9.23
2023-01-26T04:32:48.554Z,11.13
2023-01-26T04:35:18.346Z,10.88
2023-01-26T04:37:46.620Z,11.73
2023-01-26T04:40:15.209Z,12.07
2023-01-26T04:42:43.446Z,13.27
2023-01-26T04:45:12.478Z,12.20
2023-01-26T04:47:40.729Z,13.13
2023-01-26T04:50:10.857Z,12.10
2023-01-26T04:52:40.596Z,12.18
2023-01-26T04:55:09.486Z,10.95
2023-01-26T04:57:37.680Z,11.07
2023-01-26T05:00:06.982Z,12.23
2023-01-26T05:02:35.218Z,12.00
2023-01-26T05:05:03.543Z,11.35
2023-01-26T05:07:31.745Z,11.18
2023-01-26T05:10:01.384Z,11.82
2023-01-26T05:12:35.208Z,11.32
2023-01-26T05:15:03.497Z,11.23
2023-01-26T05:17:31.773Z,10.60
2023-01-26T05:19:59.985Z,11.40
2023-01-26T05:22:28.220Z,11.70
2023-01-26T05:24:56.437Z,10.25
2023-01-26T05:27:26.098Z,11.02
2023-01-26T05:29:55.402Z,11.38
2023-01-26T05:32:23.567Z,11.55
2023-01-26T05:34:51.891Z,11.82
2023-01-26T05:37:20.291Z,11.63
2023-01-26T05:39:48.624Z,11.77
2023-01-26T05:42:16.884Z,11.95
2023-01-26T05:44:46.475Z,11.30
2023-01-26T05:47:14.682Z,9.77
2023-01-26T05:49:43.478Z,10.20
2023-01-26T05:52:12.914Z,9.80
2023-01-26T05:54:43.834Z,9.50
2023-01-26T05:57:12.337Z,9.55
2023-01-26T05:59:40.803Z,9.02
2023-01-26T06:02:14.516Z,12.13
2023-01-26T06:04:42.794Z,10.50
2023-01-26T06:07:13.622Z,10.10
2023-01-26T06:09:42.259Z,11.10
2023-01-26T06:12:16.726Z,10.77
2023-01-26T06:14:47.231Z,11.20
2023-01-26T06:17:18.807Z,9.85
2023-01-26T06:19:47.316Z,10.10
2023-01-26T06:22:16.324Z,10.15
2023-01-26T06:24:44.548Z,13.07
2023-01-26T06:27:15.061Z,10.13
2023-01-26T06:29:43.288Z,10.90
2023-01-26T06:32:11.784Z,13.93
2023-01-26T06:34:41.931Z,12.32
2023-01-26T06:37:10.508Z,10.20
2023-01-26T06:39:38.737Z,11.13
2023-01-26T06:42:08.506Z,9.77
2023-01-26T06:44:36.730Z,8.43
2023-01-26T06:47:06.188Z,9.63
2023-01-26T06:49:34.390Z,9.55
2023-01-26T06:52:20.292Z,10.32
2023-01-26T06:54:50.501Z,9.00
2023-01-26T06:57:18.727Z,11.07
2023-01-26T06:59:46.916Z,9.80
2023-01-26T07:02:19.420Z,10.68
2023-01-26T07:04:48.193Z,20.08
2023-01-26T07:07:17.944Z,18.85
2023-01-26T07:09:46.184Z,18.38
2023-01-26T07:12:14.418Z,11.05
2023-01-26T07:14:42.740Z,10.55
2023-01-26T07:17:10.969Z,9.43
2023-01-26T07:19:39.193Z,10.70
2023-01-26T07:22:07.467Z,10.27
2023-01-26T07:24:37.205Z,10.45
2023-01-26T07:27:05.427Z,10.85
2023-01-26T07:29:33.702Z,10.55
2023-01-26T07:32:02.011Z,11.35
2023-01-26T07:34:30.230Z,10.82
2023-01-26T07:36:58.455Z,11.35
2023-01-26T07:39:26.893Z,12.10
2023-01-26T07:41:56.577Z,11.68
2023-01-26T07:44:24.839Z,10.88
2023-01-26T07:46:54.673Z,9.73
2023-01-26T07:49:22.943Z,10.07
2023-01-26T07:51:52.538Z,10.60
2023-01-26T07:54:25.492Z,9.55
2023-01-26T07:56:55.057Z,10.57
2023-01-26T07:59:25.363Z,11.05
2023-01-26T08:01:55.509Z,10.25
2023-01-26T08:04:24.215Z,10.18
2023-01-26T08:07:05.985Z,10.45
2023-01-26T08:09:34.361Z,14.80
2023-01-26T08:12:02.551Z,10.68
2023-01-26T08:14:45.832Z,10.60
2023-01-26T08:17:17.460Z,10.45
2023-01-26T08:19:45.864Z,10.88
2023-01-26T08:22:14.121Z,11.13
2023-01-26T08:24:42.353Z,13.20
2023-01-26T08:27:10.629Z,10.60
2023-01-26T08:29:40.290Z,12.35
2023-01-26T08:32:09.307Z,12.63
2023-01-26T08:34:37.577Z,13.10
2023-01-26T08:37:05.836Z,11.73
2023-01-26T08:39:34.083Z,11.15
2023-01-26T08:42:02.352Z,12.52
2023-01-26T08:44:30.588Z,12.80
2023-01-26T08:47:00.367Z,14.35
2023-01-26T08:49:28.635Z,13.10
2023-01-26T08:51:57.954Z,13.23
2023-01-26T08:54:26.176Z,11.85
2023-01-26T08:56:55.377Z,10.77
2023-01-26T08:59:23.626Z,11.77
2023-01-26T09:01:51.953Z,12.20
2023-01-26T09:04:21.623Z,10.68
2023-01-26T09:06:49.887Z,11.52
2023-01-26T09:09:18.082Z,11.63
2023-01-26T09:11:46.373Z,11.75
2023-01-26T09:14:14.531Z,12.35
2023-01-26T09:16:42.840Z,12.65
2023-01-26T09:19:11.086Z,12.95
2023-01-26T09:21:40.658Z,13.77
2023-01-26T09:24:09.441Z,11.02
2023-01-26T09:26:37.702Z,12.43
2023-01-26T09:29:09.261Z,11.48
2023-01-26T09:31:41.146Z,13.10
2023-01-26T09:34:09.567Z,14.48
2023-01-26T09:36:41.262Z,13.40
2023-01-26T09:39:13.703Z,12.15
2023-01-26T09:42:06.105Z,13.17
2023-01-26T09:44:42.563Z,13.73
2023-01-26T09:47:19.608Z,11.82
2023-01-26T09:49:52.175Z,13.25
2023-01-26T09:52:28.594Z,15.68
2023-01-26T09:55:00.784Z,13.60
2023-01-26T09:57:34.387Z,14.17
2023-01-26T10:00:07.434Z,12.63
2023-01-26T10:02:54.686Z,14.63
2023-01-26T10:05:33.308Z,12.75
2023-01-26T10:08:01.544Z,12.63
2023-01-26T10:10:37.103Z,13.00
2023-01-26T10:13:06.119Z,12.60
2023-01-26T10:15:39.146Z,12.45
2023-01-26T10:20:46.432Z,11.55
2023-01-26T10:23:30.700Z,12.10
2023-01-26T10:26:13.345Z,10.95
2023-01-26T10:28:46.840Z,11.45
2023-01-26T10:31:18.486Z,11.38
2023-01-26T10:33:52.447Z,10.75
2023-01-26T10:36:21.129Z,9.95
2023-01-26T10:38:49.884Z,12.15
2023-01-26T10:41:30.298Z,11.68
2023-01-26T10:43:59.981Z,11.45
2023-01-26T10:46:34.119Z,12.38
2023-01-26T10:49:04.278Z,12.68
2023-01-26T10:51:34.051Z,11.75
2023-01-26T10:54:23.222Z,12.15
2023-01-26T10:56:55.083Z,12.63
2023-01-26T10:59:35.562Z,12.65
2023-01-26T11:02:21.302Z,12.38
2023-01-26T11:05:05.369Z,12.13
2023-01-26T11:07:36.502Z,13.25
2023-01-26T11:10:20.953Z,13.40
2023-01-26T11:12:50.982Z,13.25
2023-01-26T11:15:21.063Z,12.27
2023-01-26T11:17:57.922Z,12.18
2023-01-26T11:20:57.977Z,12.35
2023-01-26T11:23:47.319Z,13.57
2023-01-26T11:26:53.011Z,12.88
2023-01-26T11:29:41.201Z,13.32
2023-01-26T11:32:18.078Z,12.70
2023-01-26T11:34:59.463Z,12.13
2023-01-26T11:37:56.857Z,12.63
2023-01-26T11:40:39.678Z,12.52
2023-01-26T11:43:35.362Z,12.57
2023-01-26T11:46:21.181Z,13.88
2023-01-26T11:49:01.318Z,13.48
2023-01-26T11:51:39.115Z,14.07
2023-01-26T11:54:30.449Z,14.48
2023-01-26T11:57:04.731Z,12.63
2023-01-26T11:59:37.728Z,14.93
2023-01-26T12:02:23.847Z,14.35
2023-01-26T12:04:55.825Z,14.65
2023-01-26T12:07:30.264Z,14.93
2023-01-26T12:10:01.459Z,15.15
2023-01-26T12:12:38.643Z,14.95
2023-01-26T12:15:14.411Z,14.70
2023-01-26T12:17:54.995Z,14.45
2023-01-26T12:20:35.962Z,15.02
2023-01-26T12:23:07.696Z,14.85
2023-01-26T12:25:37.857Z,15.65
2023-01-26T12:28:13.940Z,14.20
2023-01-26T12:30:55.118Z,15.30
2023-01-26T12:33:25.315Z,15.57
2023-01-26T12:36:21.424Z,14.63
2023-01-26T12:39:08.167Z,14.73
2023-01-26T12:41:47.475Z,14.88
2023-01-26T12:44:29.392Z,14.25
2023-01-26T12:47:06.699Z,13.90
2023-01-26T12:49:42.182Z,16.17
2023-01-26T12:52:16.775Z,16.70
2023-01-26T12:54:50.451Z,15.15
2023-01-26T12:57:23.101Z,14.45
2023-01-26T12:59:54.710Z,14.85
2023-01-26T13:02:30.877Z,14.00
2023-01-26T13:05:03.022Z,14.55
2023-01-26T13:07:35.223Z,15.85
2023-01-26T13:11:52.139Z,18.10
2023-01-26T13:14:31.384Z,15.07
2023-01-26T13:17:27.401Z,14.10
2023-01-26T13:19:59.787Z,12.95
2023-01-26T13:22:42.326Z,13.98
2023-01-26T13:25:19.652Z,13.88
2023-01-26T13:27:56.713Z,11.88
2023-01-26T13:30:46.206Z,12.80
2023-01-26T13:33:20.012Z,13.38
2023-01-26T13:35:49.481Z,16.05
2023-01-26T13:38:28.865Z,15.52
2023-01-26T13:40:59.033Z,16.75
2023-01-26T13:43:36.075Z,15.35
2023-01-26T13:46:15.505Z,14.23
2023-01-26T13:48:46.658Z,12.95
2023-01-26T13:51:18.862Z,16.95
2023-01-26T13:53:59.855Z,14.60
2023-01-26T13:56:31.752Z,13.75
2023-01-26T13:59:08.422Z,14.27
2023-01-26T14:01:43.401Z,13.85
2023-01-26T14:04:16.279Z,14.07
2023-01-26T14:06:48.967Z,12.82
2023-01-26T14:09:27.179Z,14.38
2023-01-26T14:12:33.417Z,13.73
2023-01-26T14:15:09.054Z,13.80
2023-01-26T14:17:50.413Z,13.63
2023-01-26T14:20:31.949Z,13.32
2023-01-26T14:23:21.307Z,14.95
2023-01-26T14:25:59.542Z,13.70
2023-01-26T14:28:32.310Z,14.05
2023-01-26T14:31:08.117Z,15.68
2023-01-26T14:33:59.234Z,14.45
2023-01-26T14:36:33.201Z,14.23
2023-01-26T14:39:02.132Z,15.57
2023-01-26T14:41:33.768Z,14.15
2023-01-26T14:44:08.023Z,16.40
2023-01-26T14:46:47.625Z,14.75
2023-01-26T14:49:51.202Z,14.57
2023-01-26T14:52:26.110Z,14.55
2023-01-26T14:54:55.544Z,14.25
2023-01-26T14:57:29.461Z,14.85
2023-01-26T15:00:00.633Z,13.32
2023-01-26T15:02:37.500Z,14.50
2023-01-26T15:05:12.987Z,14.30
2023-01-26T15:07:44.996Z,13.95
2023-01-26T15:10:36.462Z,15.25
2023-01-26T15:13:11.455Z,15.45
2023-01-26T15:15:41.340Z,15.10
2023-01-26T15:18:20.501Z,15.63
2023-01-26T15:21:00.594Z,13.35
2023-01-26T15:23:31.693Z,16.52
2023-01-26T15:26:07.624Z,14.13
2023-01-26T15:28:38.669Z,14.20
2023-01-26T15:31:20.733Z,13.90
2023-01-26T15:34:01.560Z,14.80
2023-01-26T15:36:48.054Z,15.07
2023-01-26T15:39:26.679Z,15.20
2023-01-26T15:42:13.973Z,16.13
2023-01-26T15:44:43.683Z,15.48
2023-01-26T15:47:13.910Z,13.52
2023-01-26T15:49:43.086Z,14.13
2023-01-26T15:55:25.507Z,14.88
2023-01-26T15:57:55.432Z,16.95
2023-01-26T16:00:25.440Z,15.95
2023-01-26T16:02:53.953Z,15.93
2023-01-26T16:05:23.776Z,16.35
2023-01-26T16:07:52.734Z,17.08
2023-01-26T16:10:21.107Z,14.43
2023-01-26T16:12:50.857Z,14.82
2023-01-26T16:15:40.081Z,14.00
2023-01-26T16:18:15.231Z,16.35
2023-01-26T16:20:45.461Z,18.10
2023-01-26T16:23:19.864Z,16.42
2023-01-26T16:25:48.599Z,15.15
2023-01-26T16:28:17.412Z,14.65
2023-01-26T16:30:48.593Z,16.38
2023-01-26T16:33:20.983Z,14.88
2023-01-26T16:35:49.271Z,16.17
2023-01-26T16:38:20.192Z,15.40
2023-01-26T16:41:55.526Z,15.63
2023-01-26T16:47:25.195Z,16.05
2023-01-26T16:49:54.285Z,15.65
2023-01-26T16:52:22.813Z,16.48
2023-01-26T16:54:50.998Z,17.27
2023-01-26T16:57:21.371Z,16.92
2023-01-26T16:59:49.898Z,17.05
2023-01-26T17:02:25.948Z,18.13
2023-01-26T17:04:54.382Z,17.52
2023-01-26T17:07:22.537Z,15.48
2023-01-26T17:09:53.543Z,16.40
2023-01-26T17:12:21.799Z,16.95
2023-01-26T17:14:50.163Z,16.80
2023-01-26T17:17:18.436Z,18.05
2023-01-26T17:19:48.091Z,17.30
2023-01-26T17:22:16.481Z,16.90
2023-01-26T17:24:44.706Z,17.15
2023-01-26T17:27:13.125Z,17.67
2023-01-26T17:29:42.338Z,17.63
2023-01-26T17:32:10.565Z,15.98
2023-01-26T17:34:38.817Z,16.08
2023-01-26T17:37:08.408Z,19.10
2023-01-26T17:39:36.795Z,22.27
2023-01-26T17:42:05.222Z,19.83
2023-01-26T17:44:33.413Z,19.08
2023-01-26T17:47:01.621Z,19.63
2023-01-26T17:49:29.947Z,19.05
2023-01-26T17:51:58.211Z,17.40
2023-01-26T17:54:27.878Z,16.88
2023-01-26T17:56:56.094Z,18.70
2023-01-26T17:59:34.925Z,21.45
2023-01-26T18:02:03.274Z,18.70
2023-01-26T18:04:32.563Z,18.52
2023-01-26T18:07:02.206Z,17.23
2023-01-26T18:09:32.051Z,17.33
2023-01-26T18:12:00.304Z,17.13
2023-01-26T18:14:29.257Z,18.25
2023-01-26T18:16:57.488Z,19.77
2023-01-26T18:19:31.777Z,38.05
2023-01-26T18:21:59.988Z,32.63
2023-01-26T18:24:29.343Z,24.48
2023-01-26T18:26:58.936Z,19.42
2023-01-26T18:29:27.213Z,16.58
2023-01-26T18:31:55.480Z,17.33
2023-01-26T18:34:23.873Z,17.15
2023-01-26T18:36:52.097Z,15.70
2023-01-26T18:39:20.281Z,17.42
2023-01-26T18:41:48.533Z,16.85
2023-01-26T18:44:18.507Z,15.23
2023-01-26T18:46:46.748Z,16.52
2023-01-26T18:49:28.821Z,16.23
2023-01-26T18:51:57.066Z,16.40
2023-01-26T18:54:29.338Z,16.25
2023-01-26T18:56:58.079Z,16.23
2023-01-26T18:59:27.978Z,17.67
2023-01-26T19:01:56.525Z,17.02
2023-01-26T19:04:24.826Z,17.33
2023-01-26T19:06:53.166Z,18.30
2023-01-26T19:09:21.488Z,18.30
2023-01-26T19:11:53.656Z,18.15
2023-01-26T19:14:22.652Z,19.25
2023-01-26T19:16:52.364Z,21.38
2023-01-26T19:19:20.744Z,21.95
2023-01-26T19:21:49.062Z,17.33
2023-01-26T19:24:17.340Z,16.63
2023-01-26T19:26:45.606Z,16.77
2023-01-26T19:29:13.821Z,16.42
2023-01-26T19:31:43.349Z,15.15
2023-01-26T19:34:16.917Z,16.20
2023-01-26T19:36:46.805Z,15.38
2023-01-26T19:39:15.216Z,15.82
2023-01-26T19:41:44.307Z,16.05
2023-01-26T19:44:12.591Z,14.80
2023-01-26T19:46:40.827Z,14.48
2023-01-26T19:49:11.768Z,14.68
2023-01-26T19:51:42.115Z,15.32
2023-01-26T19:54:10.712Z,15.63
2023-01-26T19:56:39.382Z,14.55
2023-01-26T19:59:10.262Z,15.48
2023-01-26T20:01:38.920Z,19.02
2023-01-26T20:04:30.964Z,38.65
2023-01-26T20:11:25.035Z,18.13
2023-01-26T20:18:18.737Z,16.38
2023-01-26T20:21:31.935Z,16.70
2023-01-26T20:28:15.867Z,15.98
2023-01-26T20:30:46.245Z,16.38
2023-01-26T20:33:14.693Z,15.35
2023-01-26T20:35:43.853Z,15.77
2023-01-26T20:38:14.116Z,15.73
2023-01-26T20:40:49.526Z,15.40
2023-01-26T20:43:20.662Z,14.25
2023-01-26T20:45:55.283Z,16.70
2023-01-26T20:48:39.927Z,16.58
2023-01-26T20:58:06.848Z,16.17
2023-01-26T21:00:43.516Z,17.67
2023-01-26T21:03:20.324Z,15.82
2023-01-26T21:05:57.277Z,15.98
2023-01-26T21:08:28.190Z,15.85
2023-01-26T21:10:56.482Z,15.18
2023-01-26T21:13:40.046Z,15.52
2023-01-26T21:16:10.698Z,16.00
2023-01-26T21:18:38.921Z,17.15
2023-01-26T21:21:09.337Z,17.45
2023-01-26T21:23:37.532Z,14.88
2023-01-26T21:26:07.603Z,14.70
2023-01-26T21:28:36.118Z,14.70
2023-01-26T21:31:06.660Z,14.52
2023-01-26T21:33:38.986Z,14.25
2023-01-26T21:36:08.722Z,14.90
2023-01-26T21:38:38.630Z,16.30
2023-01-26T21:41:30.612Z,17.05
2023-01-26T21:43:59.492Z,16.77
2023-01-26T21:46:29.004Z,15.15
2023-01-26T21:48:58.766Z,15.25
2023-01-26T21:51:48.065Z,16.73
2023-01-26T21:54:16.691Z,15.73
2023-01-26T21:56:53.211Z,17.75
2023-01-26T21:59:20.542Z,17.67
2023-01-26T22:01:50.803Z,22.63
2023-01-26T22:04:22.278Z,28.08
2023-01-26T22:06:52.103Z,30.02
2023-01-26T22:09:21.369Z,23.63
2023-01-26T22:11:50.729Z,32.40
2023-01-26T22:14:20.940Z,23.83
2023-01-26T22:16:49.371Z,28.77
2023-01-26T22:19:19.096Z,30.20
2023-01-26T22:21:47.370Z,29.27
2023-01-26T22:24:18.042Z,20.85
2023-01-26T22:26:46.416Z,20.05
2023-01-26T22:29:14.646Z,18.80
2023-01-26T22:31:42.955Z,17.25
2023-01-26T22:34:12.031Z,15.55
2023-01-26T22:36:41.743Z,14.50
2023-01-26T22:39:12.207Z,13.77
2023-01-26T22:41:40.628Z,14.32
2023-01-26T22:44:09.228Z,14.60
2023-01-26T22:46:37.913Z,14.45
2023-01-26T22:49:06.429Z,14.23
2023-01-26T22:51:37.300Z,13.95
2023-01-26T22:54:07.300Z,12.45
2023-01-26T22:56:35.709Z,12.00
2023-01-26T22:59:04.343Z,11.82
2023-01-26T23:01:34.497Z,10.82
2023-01-26T23:04:03.128Z,11.93
2023-01-26T23:06:31.523Z,12.20
2023-01-26T23:09:01.248Z,11.82
2023-01-26T23:11:31.750Z,11.68
2023-01-26T23:14:01.158Z,12.07
2023-01-26T23:16:29.894Z,11.40
2023-01-26T23:18:59.893Z,11.35
2023-01-26T23:21:29.456Z,14.93
2023-01-26T23:23:57.809Z,16.60
2023-01-26T23:26:26.613Z,16.23
2023-01-26T23:28:56.263Z,13.68
2023-01-26T23:31:24.622Z,12.45
2023-01-26T23:33:53.032Z,12.63
2023-01-26T23:36:21.900Z,11.77
2023-01-26T23:38:50.287Z,11.25
2023-01-26T23:41:18.847Z,11.60
2023-01-26T23:43:47.349Z,11.63
2023-01-26T23:46:17.138Z,11.32
2023-01-26T23:48:45.524Z,10.98
2023-01-26T23:51:14.016Z,10.52
2023-01-26T23:53:42.276Z,11.30
2023-01-26T23:56:14.507Z,11.05
2023-01-26T23:58:42.939Z,10.80
